sensor_id;sensor_type;location;lat;lon;timestamp;P1;durP1;ratioP1;P2;durP2;ratioP2
21890;SDS011;11110;52.386;16.940;2023-01-04T00:02:31;50.13;;;23.40;;
21890;SDS011;11110;52.386;16.940;2023-01-04T00:04:59;51.20;;;22.37;;
21890;SDS011;11110;52.386;16.940;2023-01-04T00:07:28;47.87;;;22.50;;
21890;SDS011;11110;52.386;16.940;2023-01-04T00:09:57;49.33;;;22.97;;
21890;SDS011;11110;52.386;16.940;2023-01-04T00:12:26;50.50;;;24.80;;
21890;SDS011;11110;52.386;16.940;2023-01-04T00:14:56;50.03;;;22.47;;
21890;SDS011;11110;52.386;16.940;2023-01-04T00:17:25;51.00;;;23.37;;
21890;SDS011;11110;52.386;16.940;2023-01-04T00:19:53;47.17;;;21.53;;
21890;SDS011;11110;52.386;16.940;2023-01-04T00:22:22;49.70;;;21.93;;
21890;SDS011;11110;52.386;16.940;2023-01-04T00:24:50;48.30;;;22.47;;
21890;SDS011;11110;52.386;16.940;2023-01-04T00:27:19;48.27;;;22.77;;
21890;SDS011;11110;52.386;16.940;2023-01-04T00:29:48;45.97;;;21.33;;
21890;SDS011;11110;52.386;16.940;2023-01-04T00:32:18;47.00;;;23.30;;
21890;SDS011;11110;52.386;16.940;2023-01-04T00:34:47;53.47;;;23.73;;
21890;SDS011;11110;52.386;16.940;2023-01-04T00:37:16;44.03;;;22.43;;
21890;SDS011;11110;52.386;16.940;2023-01-04T00:39:44;55.93;;;24.30;;
21890;SDS011;11110;52.386;16.940;2023-01-04T00:42:13;53.70;;;23.70;;
21890;SDS011;11110;52.386;16.940;2023-01-04T00:44:41;50.97;;;22.97;;
21890;SDS011;11110;52.386;16.940;2023-01-04T00:47:10;51.20;;;22.47;;
21890;SDS011;11110;52.386;16.940;2023-01-04T00:49:40;51.13;;;22.57;;
21890;SDS011;11110;52.386;16.940;2023-01-04T00:52:09;44.70;;;21.93;;
21890;SDS011;11110;52.386;16.940;2023-01-04T00:54:37;41.17;;;20.97;;
21890;SDS011;11110;52.386;16.940;2023-01-04T00:57:06;43.33;;;20.87;;
21890;SDS011;11110;52.386;16.940;2023-01-04T00:59:35;49.30;;;22.53;;
21890;SDS011;11110;52.386;16.940;2023-01-04T01:02:03;47.23;;;23.00;;
21890;SDS011;11110;52.386;16.940;2023-01-04T01:04:32;42.50;;;21.30;;
21890;SDS011;11110;52.386;16.940;2023-01-04T01:07:03;41.40;;;21.97;;
21890;SDS011;11110;52.386;16.940;2023-01-04T01:09:31;49.07;;;21.93;;
21890;SDS011;11110;52.386;16.940;2023-01-04T01:12:00;47.97;;;22.60;;
21890;SDS011;11110;52.386;16.940;2023-01-04T01:14:29;48.67;;;23.50;;
21890;SDS011;11110;52.386;16.940;2023-01-04T01:16:57;49.13;;;22.87;;
21890;SDS011;11110;52.386;16.940;2023-01-04T01:19:27;48.93;;;23.83;;
21890;SDS011;11110;52.386;16.940;2023-01-04T01:21:56;47.63;;;23.80;;
21890;SDS011;11110;52.386;16.940;2023-01-04T01:24:26;46.70;;;21.50;;
21890;SDS011;11110;52.386;16.940;2023-01-04T01:26:55;52.67;;;24.10;;
21890;SDS011;11110;52.386;16.940;2023-01-04T01:29:24;45.13;;;20.90;;
21890;SDS011;11110;52.386;16.940;2023-01-04T01:31:53;51.73;;;22.97;;
21890;SDS011;11110;52.386;16.940;2023-01-04T01:34:22;40.73;;;20.37;;
21890;SDS011;11110;52.386;16.940;2023-01-04T01:36:50;49.60;;;22.13;;
21890;SDS011;11110;52.386;16.940;2023-01-04T01:39:19;39.93;;;20.23;;
21890;SDS011;11110;52.386;16.940;2023-01-04T01:41:49;45.57;;;22.10;;
21890;SDS011;11110;52.386;16.940;2023-01-04T01:47:25;45.10;;;21.33;;
21890;SDS011;11110;52.386;16.940;2023-01-04T01:49:56;44.03;;;21.17;;
21890;SDS011;11110;52.386;16.940;2023-01-04T01:52:25;41.07;;;19.93;;
21890;SDS011;11110;52.386;16.940;2023-01-04T01:54:58;43.10;;;19.67;;
21890;SDS011;11110;52.386;16.940;2023-01-04T01:57:32;41.73;;;20.23;;
21890;SDS011;11110;52.386;16.940;2023-01-04T02:00:05;39.53;;;20.47;;
21890;SDS011;11110;52.386;16.940;2023-01-04T02:02:39;39.87;;;19.33;;
21890;SDS011;11110;52.386;16.940;2023-01-04T02:05:16;45.27;;;22.10;;
21890;SDS011;11110;52.386;16.940;2023-01-04T02:07:47;51.40;;;22.33;;
21890;SDS011;11110;52.386;16.940;2023-01-04T02:10:17;50.37;;;22.70;;
21890;SDS011;11110;52.386;16.940;2023-01-04T02:12:47;52.20;;;23.37;;
21890;SDS011;11110;52.386;16.940;2023-01-04T02:15:17;43.27;;;21.40;;
21890;SDS011;11110;52.386;16.940;2023-01-04T02:17:50;41.80;;;20.23;;
21890;SDS011;11110;52.386;16.940;2023-01-04T02:20:26;43.47;;;22.00;;
21890;SDS011;11110;52.386;16.940;2023-01-04T02:23:14;44.90;;;20.40;;
21890;SDS011;11110;52.386;16.940;2023-01-04T02:29:14;48.57;;;23.93;;
21890;SDS011;11110;52.386;16.940;2023-01-04T02:32:07;50.67;;;23.60;;
21890;SDS011;11110;52.386;16.940;2023-01-04T02:34:46;50.27;;;24.23;;
21890;SDS011;11110;52.386;16.940;2023-01-04T02:37:26;54.73;;;25.57;;
21890;SDS011;11110;52.386;16.940;2023-01-04T02:40:03;52.90;;;23.80;;
21890;SDS011;11110;52.386;16.940;2023-01-04T02:42:40;45.33;;;21.53;;
21890;SDS011;11110;52.386;16.940;2023-01-04T02:45:42;52.60;;;25.20;;
21890;SDS011;11110;52.386;16.940;2023-01-04T02:48:16;46.43;;;21.97;;
21890;SDS011;11110;52.386;16.940;2023-01-04T02:51:03;42.50;;;22.87;;
21890;SDS011;11110;52.386;16.940;2023-01-04T02:53:32;46.63;;;23.17;;
21890;SDS011;11110;52.386;16.940;2023-01-04T02:56:07;42.03;;;19.70;;
21890;SDS011;11110;52.386;16.940;2023-01-04T02:58:46;39.57;;;19.47;;
21890;SDS011;11110;52.386;16.940;2023-01-04T03:01:26;38.27;;;18.03;;
21890;SDS011;11110;52.386;16.940;2023-01-04T03:04:24;42.13;;;20.73;;
21890;SDS011;11110;52.386;16.940;2023-01-04T03:07:23;48.47;;;22.93;;
21890;SDS011;11110;52.386;16.940;2023-01-04T03:09:57;42.17;;;20.07;;
21890;SDS011;11110;52.386;16.940;2023-01-04T03:12:31;34.60;;;17.03;;
21890;SDS011;11110;52.386;16.940;2023-01-04T03:15:07;34.33;;;17.70;;
21890;SDS011;11110;52.386;16.940;2023-01-04T03:17:41;34.40;;;17.13;;
21890;SDS011;11110;52.386;16.940;2023-01-04T03:20:14;37.40;;;17.27;;
21890;SDS011;11110;52.386;16.940;2023-01-04T03:22:46;36.70;;;15.43;;
21890;SDS011;11110;52.386;16.940;2023-01-04T03:25:38;32.37;;;16.03;;
21890;SDS011;11110;52.386;16.940;2023-01-04T03:28:29;33.03;;;16.17;;
21890;SDS011;11110;52.386;16.940;2023-01-04T03:31:18;32.83;;;15.30;;
21890;SDS011;11110;52.386;16.940;2023-01-04T03:34:09;35.70;;;15.67;;
21890;SDS011;11110;52.386;16.940;2023-01-04T03:36:59;33.40;;;15.53;;
21890;SDS011;11110;52.386;16.940;2023-01-04T03:39:38;34.67;;;14.03;;
21890;SDS011;11110;52.386;16.940;2023-01-04T03:42:35;30.40;;;14.33;;
21890;SDS011;11110;52.386;16.940;2023-01-04T03:45:29;28.93;;;14.97;;
21890;SDS011;11110;52.386;16.940;2023-01-04T03:48:18;31.60;;;14.93;;
21890;SDS011;11110;52.386;16.940;2023-01-04T03:51:06;37.27;;;17.27;;
21890;SDS011;11110;52.386;16.940;2023-01-04T03:53:45;35.07;;;16.63;;
21890;SDS011;11110;52.386;16.940;2023-01-04T03:56:20;30.37;;;16.03;;
21890;SDS011;11110;52.386;16.940;2023-01-04T03:58:50;27.73;;;14.47;;
21890;SDS011;11110;52.386;16.940;2023-01-04T04:01:22;32.00;;;15.50;;
21890;SDS011;11110;52.386;16.940;2023-01-04T04:03:53;30.23;;;15.17;;
21890;SDS011;11110;52.386;16.940;2023-01-04T04:06:39;29.43;;;15.43;;
21890;SDS011;11110;52.386;16.940;2023-01-04T04:09:27;26.83;;;14.93;;
21890;SDS011;11110;52.386;16.940;2023-01-04T04:11:56;33.00;;;14.97;;
21890;SDS011;11110;52.386;16.940;2023-01-04T04:14:25;29.30;;;15.10;;
21890;SDS011;11110;52.386;16.940;2023-01-04T04:16:54;34.77;;;16.00;;
21890;SDS011;11110;52.386;16.940;2023-01-04T04:19:22;37.03;;;16.33;;
21890;SDS011;11110;52.386;16.940;2023-01-04T04:21:51;33.53;;;15.30;;
21890;SDS011;11110;52.386;16.940;2023-01-04T04:24:20;29.87;;;14.70;;
21890;SDS011;11110;52.386;16.940;2023-01-04T04:26:52;28.00;;;15.43;;
21890;SDS011;11110;52.386;16.940;2023-01-04T04:29:22;28.00;;;14.80;;
21890;SDS011;11110;52.386;16.940;2023-01-04T04:31:51;28.17;;;15.27;;
21890;SDS011;11110;52.386;16.940;2023-01-04T04:34:20;32.57;;;15.17;;
21890;SDS011;11110;52.386;16.940;2023-01-04T04:36:49;28.87;;;15.30;;
21890;SDS011;11110;52.386;16.940;2023-01-04T04:39:17;26.53;;;15.47;;
21890;SDS011;11110;52.386;16.940;2023-01-04T04:41:46;25.43;;;14.00;;
21890;SDS011;11110;52.386;16.940;2023-01-04T04:44:15;25.23;;;13.57;;
21890;SDS011;11110;52.386;16.940;2023-01-04T04:46:45;30.00;;;14.37;;
21890;SDS011;11110;52.386;16.940;2023-01-04T04:49:15;24.90;;;14.10;;
21890;SDS011;11110;52.386;16.940;2023-01-04T04:51:45;25.43;;;12.73;;
21890;SDS011;11110;52.386;16.940;2023-01-04T04:54:14;21.07;;;11.87;;
21890;SDS011;11110;52.386;16.940;2023-01-04T04:56:45;26.87;;;13.07;;
21890;SDS011;11110;52.386;16.940;2023-01-04T04:59:15;28.53;;;12.60;;
21890;SDS011;11110;52.386;16.940;2023-01-04T05:01:44;22.97;;;11.80;;
21890;SDS011;11110;52.386;16.940;2023-01-04T05:04:13;26.60;;;11.33;;
21890;SDS011;11110;52.386;16.940;2023-01-04T05:06:46;23.40;;;11.87;;
21890;SDS011;11110;52.386;16.940;2023-01-04T05:09:16;26.93;;;12.57;;
21890;SDS011;11110;52.386;16.940;2023-01-04T05:11:45;26.40;;;12.80;;
21890;SDS011;11110;52.386;16.940;2023-01-04T05:14:44;24.73;;;11.27;;
21890;SDS011;11110;52.386;16.940;2023-01-04T05:17:13;26.50;;;12.57;;
21890;SDS011;11110;52.386;16.940;2023-01-04T05:19:41;31.97;;;12.80;;
21890;SDS011;11110;52.386;16.940;2023-01-04T05:22:10;28.47;;;13.20;;
21890;SDS011;11110;52.386;16.940;2023-01-04T05:24:38;31.67;;;13.83;;
21890;SDS011;11110;52.386;16.940;2023-01-04T05:27:07;25.73;;;13.07;;
21890;SDS011;11110;52.386;16.940;2023-01-04T05:29:36;27.63;;;13.33;;
21890;SDS011;11110;52.386;16.940;2023-01-04T05:32:24;32.40;;;14.40;;
21890;SDS011;11110;52.386;16.940;2023-01-04T05:34:52;29.83;;;13.83;;
21890;SDS011;11110;52.386;16.940;2023-01-04T05:37:21;29.13;;;13.33;;
21890;SDS011;11110;52.386;16.940;2023-01-04T05:39:50;31.03;;;13.50;;
21890;SDS011;11110;52.386;16.940;2023-01-04T05:42:18;24.43;;;12.93;;
21890;SDS011;11110;52.386;16.940;2023-01-04T05:44:54;32.10;;;13.87;;
21890;SDS011;11110;52.386;16.940;2023-01-04T05:47:27;23.77;;;12.30;;
21890;SDS011;11110;52.386;16.940;2023-01-04T05:49:55;31.80;;;13.53;;
21890;SDS011;11110;52.386;16.940;2023-01-04T05:52:24;26.73;;;12.33;;
21890;SDS011;11110;52.386;16.940;2023-01-04T05:54:53;22.67;;;11.97;;
21890;SDS011;11110;52.386;16.940;2023-01-04T05:57:22;25.67;;;11.80;;
21890;SDS011;11110;52.386;16.940;2023-01-04T05:59:50;26.13;;;13.07;;
21890;SDS011;11110;52.386;16.940;2023-01-04T06:02:20;28.23;;;14.13;;
21890;SDS011;11110;52.386;16.940;2023-01-04T06:04:52;24.70;;;11.93;;
21890;SDS011;11110;52.386;16.940;2023-01-04T06:07:25;24.87;;;12.23;;
21890;SDS011;11110;52.386;16.940;2023-01-04T06:09:54;21.43;;;11.40;;
21890;SDS011;11110;52.386;16.940;2023-01-04T06:12:23;25.37;;;12.07;;
21890;SDS011;11110;52.386;16.940;2023-01-04T06:14:52;26.40;;;12.33;;
21890;SDS011;11110;52.386;16.940;2023-01-04T06:17:21;28.03;;;12.30;;
21890;SDS011;11110;52.386;16.940;2023-01-04T06:19:51;24.80;;;12.33;;
21890;SDS011;11110;52.386;16.940;2023-01-04T06:22:20;23.00;;;11.93;;
21890;SDS011;11110;52.386;16.940;2023-01-04T06:24:49;23.80;;;11.90;;
21890;SDS011;11110;52.386;16.940;2023-01-04T06:27:18;24.13;;;11.87;;
21890;SDS011;11110;52.386;16.940;2023-01-04T06:29:47;26.80;;;11.60;;
21890;SDS011;11110;52.386;16.940;2023-01-04T06:32:15;24.50;;;11.30;;
21890;SDS011;11110;52.386;16.940;2023-01-04T06:34:44;25.00;;;11.03;;
21890;SDS011;11110;52.386;16.940;2023-01-04T06:37:14;26.67;;;11.50;;
21890;SDS011;11110;52.386;16.940;2023-01-04T06:39:43;22.40;;;10.27;;
21890;SDS011;11110;52.386;16.940;2023-01-04T06:42:12;22.80;;;10.83;;
21890;SDS011;11110;52.386;16.940;2023-01-04T06:44:54;25.37;;;11.23;;
21890;SDS011;11110;52.386;16.940;2023-01-04T06:47:23;25.57;;;12.03;;
21890;SDS011;11110;52.386;16.940;2023-01-04T06:49:52;23.77;;;10.67;;
21890;SDS011;11110;52.386;16.940;2023-01-04T06:52:22;31.83;;;12.43;;
21890;SDS011;11110;52.386;16.940;2023-01-04T06:54:50;23.30;;;11.10;;
21890;SDS011;11110;52.386;16.940;2023-01-04T06:57:19;28.33;;;12.67;;
21890;SDS011;11110;52.386;16.940;2023-01-04T06:59:48;27.07;;;11.43;;
21890;SDS011;11110;52.386;16.940;2023-01-04T07:02:16;26.57;;;11.67;;
21890;SDS011;11110;52.386;16.940;2023-01-04T07:04:45;24.40;;;11.50;;
21890;SDS011;11110;52.386;16.940;2023-01-04T07:07:14;25.87;;;11.70;;
21890;SDS011;11110;52.386;16.940;2023-01-04T07:09:44;24.33;;;11.07;;
21890;SDS011;11110;52.386;16.940;2023-01-04T07:12:13;22.53;;;11.27;;
21890;SDS011;11110;52.386;16.940;2023-01-04T07:14:42;29.30;;;12.47;;
21890;SDS011;11110;52.386;16.940;2023-01-04T07:17:10;25.63;;;12.03;;
21890;SDS011;11110;52.386;16.940;2023-01-04T07:19:39;23.70;;;12.53;;
21890;SDS011;11110;52.386;16.940;2023-01-04T07:22:08;26.77;;;11.73;;
21890;SDS011;11110;52.386;16.940;2023-01-04T07:24:37;25.93;;;11.37;;
21890;SDS011;11110;52.386;16.940;2023-01-04T07:27:07;25.63;;;11.07;;
21890;SDS011;11110;52.386;16.940;2023-01-04T07:29:36;26.03;;;11.03;;
21890;SDS011;11110;52.386;16.940;2023-01-04T07:32:09;21.10;;;9.93;;
21890;SDS011;11110;52.386;16.940;2023-01-04T07:34:40;23.27;;;11.07;;
21890;SDS011;11110;52.386;16.940;2023-01-04T07:37:09;25.40;;;10.90;;
21890;SDS011;11110;52.386;16.940;2023-01-04T07:39:38;22.97;;;10.40;;
21890;SDS011;11110;52.386;16.940;2023-01-04T07:42:09;24.97;;;10.67;;
21890;SDS011;11110;52.386;16.940;2023-01-04T07:44:38;28.23;;;11.77;;
21890;SDS011;11110;52.386;16.940;2023-01-04T07:47:07;32.73;;;12.43;;
21890;SDS011;11110;52.386;16.940;2023-01-04T07:49:35;26.70;;;12.10;;
21890;SDS011;11110;52.386;16.940;2023-01-04T07:52:04;27.70;;;11.60;;
21890;SDS011;11110;52.386;16.940;2023-01-04T07:54:33;26.97;;;12.30;;
21890;SDS011;11110;52.386;16.940;2023-01-04T07:57:01;22.80;;;11.47;;
21890;SDS011;11110;52.386;16.940;2023-01-04T07:59:32;29.00;;;11.57;;
21890;SDS011;11110;52.386;16.940;2023-01-04T08:02:01;23.83;;;10.13;;
21890;SDS011;11110;52.386;16.940;2023-01-04T08:04:31;29.40;;;13.63;;
21890;SDS011;11110;52.386;16.940;2023-01-04T08:07:01;20.93;;;9.47;;
21890;SDS011;11110;52.386;16.940;2023-01-04T08:09:30;21.97;;;10.03;;
21890;SDS011;11110;52.386;16.940;2023-01-04T08:11:59;24.40;;;11.43;;
21890;SDS011;11110;52.386;16.940;2023-01-04T08:14:28;28.40;;;11.73;;
21890;SDS011;11110;52.386;16.940;2023-01-04T08:16:58;35.70;;;12.83;;
21890;SDS011;11110;52.386;16.940;2023-01-04T08:19:27;35.30;;;12.90;;
21890;SDS011;11110;52.386;16.940;2023-01-04T08:21:55;37.57;;;12.57;;
21890;SDS011;11110;52.386;16.940;2023-01-04T08:24:24;41.03;;;13.27;;
21890;SDS011;11110;52.386;16.940;2023-01-04T08:26:53;27.33;;;11.63;;
21890;SDS011;11110;52.386;16.940;2023-01-04T08:29:22;32.63;;;12.27;;
21890;SDS011;11110;52.386;16.940;2023-01-04T08:32:00;34.10;;;11.70;;
21890;SDS011;11110;52.386;16.940;2023-01-04T08:34:28;29.97;;;10.47;;
21890;SDS011;11110;52.386;16.940;2023-01-04T08:36:58;24.57;;;10.33;;
21890;SDS011;11110;52.386;16.940;2023-01-04T08:39:26;28.27;;;10.77;;
21890;SDS011;11110;52.386;16.940;2023-01-04T08:41:59;27.00;;;10.70;;
21890;SDS011;11110;52.386;16.940;2023-01-04T08:44:44;31.23;;;10.40;;
21890;SDS011;11110;52.386;16.940;2023-01-04T08:47:14;24.57;;;10.47;;
21890;SDS011;11110;52.386;16.940;2023-01-04T08:49:43;30.27;;;11.67;;
21890;SDS011;11110;52.386;16.940;2023-01-04T08:52:12;30.20;;;11.03;;
21890;SDS011;11110;52.386;16.940;2023-01-04T08:54:41;22.77;;;9.67;;
21890;SDS011;11110;52.386;16.940;2023-01-04T08:57:10;27.20;;;10.07;;
21890;SDS011;11110;52.386;16.940;2023-01-04T08:59:38;26.93;;;10.33;;
21890;SDS011;11110;52.386;16.940;2023-01-04T09:02:20;23.00;;;9.30;;
21890;SDS011;11110;52.386;16.940;2023-01-04T09:04:50;25.60;;;9.60;;
21890;SDS011;11110;52.386;16.940;2023-01-04T09:07:21;24.30;;;10.17;;
21890;SDS011;11110;52.386;16.940;2023-01-04T09:09:50;26.90;;;9.33;;
21890;SDS011;11110;52.386;16.940;2023-01-04T09:12:18;26.53;;;9.67;;
21890;SDS011;11110;52.386;16.940;2023-01-04T09:14:47;26.63;;;10.67;;
21890;SDS011;11110;52.386;16.940;2023-01-04T09:17:16;22.33;;;8.90;;
21890;SDS011;11110;52.386;16.940;2023-01-04T09:19:45;21.83;;;8.97;;
21890;SDS011;11110;52.386;16.940;2023-01-04T09:22:14;21.57;;;9.00;;
21890;SDS011;11110;52.386;16.940;2023-01-04T09:24:43;27.17;;;9.27;;
21890;SDS011;11110;52.386;16.940;2023-01-04T09:27:12;19.27;;;8.27;;
21890;SDS011;11110;52.386;16.940;2023-01-04T09:29:40;25.10;;;8.57;;
21890;SDS011;11110;52.386;16.940;2023-01-04T09:32:09;25.53;;;9.70;;
21890;SDS011;11110;52.386;16.940;2023-01-04T09:34:42;17.87;;;8.83;;
21890;SDS011;11110;52.386;16.940;2023-01-04T09:37:13;22.73;;;9.50;;
21890;SDS011;11110;52.386;16.940;2023-01-04T09:39:41;25.53;;;9.27;;
21890;SDS011;11110;52.386;16.940;2023-01-04T09:42:14;22.57;;;8.97;;
21890;SDS011;11110;52.386;16.940;2023-01-04T09:44:49;22.97;;;8.80;;
21890;SDS011;11110;52.386;16.940;2023-01-04T09:47:40;19.50;;;8.37;;
21890;SDS011;11110;52.386;16.940;2023-01-04T09:50:13;24.63;;;9.07;;
21890;SDS011;11110;52.386;16.940;2023-01-04T09:52:50;29.13;;;10.23;;
21890;SDS011;11110;52.386;16.940;2023-01-04T09:55:25;19.07;;;8.90;;
21890;SDS011;11110;52.386;16.940;2023-01-04T09:58:18;22.63;;;9.40;;
21890;SDS011;11110;52.386;16.940;2023-01-04T10:00:52;16.90;;;7.80;;
21890;SDS011;11110;52.386;16.940;2023-01-04T10:03:28;24.17;;;9.53;;
21890;SDS011;11110;52.386;16.940;2023-01-04T10:05:59;20.60;;;8.83;;
21890;SDS011;11110;52.386;16.940;2023-01-04T10:08:30;17.23;;;7.80;;
21890;SDS011;11110;52.386;16.940;2023-01-04T10:11:06;20.13;;;8.10;;
21890;SDS011;11110;52.386;16.940;2023-01-04T10:14:00;19.77;;;8.13;;
21890;SDS011;11110;52.386;16.940;2023-01-04T10:16:43;14.70;;;7.53;;
21890;SDS011;11110;52.386;16.940;2023-01-04T10:19:48;17.40;;;8.83;;
21890;SDS011;11110;52.386;16.940;2023-01-04T10:22:51;16.90;;;7.90;;
21890;SDS011;11110;52.386;16.940;2023-01-04T10:25:26;14.23;;;8.40;;
21890;SDS011;11110;52.386;16.940;2023-01-04T10:28:02;15.60;;;8.73;;
21890;SDS011;11110;52.386;16.940;2023-01-04T10:30:42;16.73;;;8.47;;
21890;SDS011;11110;52.386;16.940;2023-01-04T10:33:19;16.43;;;8.60;;
21890;SDS011;11110;52.386;16.940;2023-01-04T10:35:53;16.37;;;8.27;;
21890;SDS011;11110;52.386;16.940;2023-01-04T10:38:23;16.30;;;9.00;;
21890;SDS011;11110;52.386;16.940;2023-01-04T10:40:56;18.47;;;9.80;;
21890;SDS011;11110;52.386;16.940;2023-01-04T10:43:31;16.13;;;9.03;;
21890;SDS011;11110;52.386;16.940;2023-01-04T10:46:27;15.53;;;8.67;;
21890;SDS011;11110;52.386;16.940;2023-01-04T10:48:59;15.60;;;7.67;;
21890;SDS011;11110;52.386;16.940;2023-01-04T10:51:39;15.63;;;8.00;;
21890;SDS011;11110;52.386;16.940;2023-01-04T10:54:12;12.47;;;7.63;;
21890;SDS011;11110;52.386;16.940;2023-01-04T10:56:51;13.17;;;8.53;;
21890;SDS011;11110;52.386;16.940;2023-01-04T10:59:33;17.77;;;8.03;;
21890;SDS011;11110;52.386;16.940;2023-01-04T11:02:06;17.33;;;9.03;;
21890;SDS011;11110;52.386;16.940;2023-01-04T11:04:43;15.43;;;8.90;;
21890;SDS011;11110;52.386;16.940;2023-01-04T11:07:20;20.70;;;9.60;;
21890;SDS011;11110;52.386;16.940;2023-01-04T11:09:54;14.53;;;8.20;;
21890;SDS011;11110;52.386;16.940;2023-01-04T11:12:30;14.80;;;8.50;;
21890;SDS011;11110;52.386;16.940;2023-01-04T11:14:58;14.77;;;8.33;;
21890;SDS011;11110;52.386;16.940;2023-01-04T11:17:28;15.23;;;7.93;;
21890;SDS011;11110;52.386;16.940;2023-01-04T11:19:58;13.87;;;7.17;;
21890;SDS011;11110;52.386;16.940;2023-01-04T11:22:28;10.73;;;6.97;;
21890;SDS011;11110;52.386;16.940;2023-01-04T11:25:04;11.33;;;6.80;;
21890;SDS011;11110;52.386;16.940;2023-01-04T11:27:59;11.10;;;6.77;;
21890;SDS011;11110;52.386;16.940;2023-01-04T11:30:34;12.03;;;7.23;;
21890;SDS011;11110;52.386;16.940;2023-01-04T11:33:13;10.70;;;7.37;;
21890;SDS011;11110;52.386;16.940;2023-01-04T11:35:45;14.13;;;7.53;;
21890;SDS011;11110;52.386;16.940;2023-01-04T11:38:16;8.80;;;6.37;;
21890;SDS011;11110;52.386;16.940;2023-01-04T11:40:56;12.00;;;7.40;;
21890;SDS011;11110;52.386;16.940;2023-01-04T11:43:28;12.87;;;7.00;;
21890;SDS011;11110;52.386;16.940;2023-01-04T11:45:59;11.87;;;6.83;;
21890;SDS011;11110;52.386;16.940;2023-01-04T11:48:34;10.83;;;6.30;;
21890;SDS011;11110;52.386;16.940;2023-01-04T11:51:05;12.10;;;6.90;;
21890;SDS011;11110;52.386;16.940;2023-01-04T11:53:43;14.57;;;7.40;;
21890;SDS011;11110;52.386;16.940;2023-01-04T11:56:14;11.57;;;7.07;;
21890;SDS011;11110;52.386;16.940;2023-01-04T11:59:07;10.70;;;7.10;;
21890;SDS011;11110;52.386;16.940;2023-01-04T12:01:49;14.17;;;7.03;;
21890;SDS011;11110;52.386;16.940;2023-01-04T12:04:19;13.67;;;8.40;;
21890;SDS011;11110;52.386;16.940;2023-01-04T12:06:49;11.70;;;7.67;;
21890;SDS011;11110;52.386;16.940;2023-01-04T12:09:20;13.17;;;7.93;;
21890;SDS011;11110;52.386;16.940;2023-01-04T12:11:49;14.93;;;7.57;;
21890;SDS011;11110;52.386;16.940;2023-01-04T12:14:24;13.73;;;8.03;;
21890;SDS011;11110;52.386;16.940;2023-01-04T12:16:56;13.27;;;7.90;;
21890;SDS011;11110;52.386;16.940;2023-01-04T12:19:30;14.80;;;8.33;;
21890;SDS011;11110;52.386;16.940;2023-01-04T12:21:59;10.57;;;6.37;;
21890;SDS011;11110;52.386;16.940;2023-01-04T12:24:30;12.67;;;7.47;;
21890;SDS011;11110;52.386;16.940;2023-01-04T12:27:01;11.53;;;7.37;;
21890;SDS011;11110;52.386;16.940;2023-01-04T12:29:32;14.40;;;8.20;;
21890;SDS011;11110;52.386;16.940;2023-01-04T12:47:51;12.10;;;7.30;;
21890;SDS011;11110;52.386;16.940;2023-01-04T12:53:59;12.47;;;6.93;;
21890;SDS011;11110;52.386;16.940;2023-01-04T12:59:35;11.97;;;6.90;;
21890;SDS011;11110;52.386;16.940;2023-01-04T13:04:55;11.00;;;6.40;;
21890;SDS011;11110;52.386;16.940;2023-01-04T13:07:46;9.93;;;5.83;;
21890;SDS011;11110;52.386;16.940;2023-01-04T13:10:18;13.47;;;7.43;;
21890;SDS011;11110;52.386;16.940;2023-01-04T13:12:55;11.57;;;6.50;;
21890;SDS011;11110;52.386;16.940;2023-01-04T13:15:42;9.33;;;5.97;;
21890;SDS011;11110;52.386;16.940;2023-01-04T13:21:14;8.80;;;6.27;;
21890;SDS011;11110;52.386;16.940;2023-01-04T13:23:47;11.40;;;7.10;;
21890;SDS011;11110;52.386;16.940;2023-01-04T13:26:26;11.03;;;6.63;;
21890;SDS011;11110;52.386;16.940;2023-01-04T13:29:09;9.87;;;6.10;;
21890;SDS011;11110;52.386;16.940;2023-01-04T13:31:44;12.00;;;7.40;;
21890;SDS011;11110;52.386;16.940;2023-01-04T13:34:19;9.73;;;6.43;;
21890;SDS011;11110;52.386;16.940;2023-01-04T13:39:47;10.50;;;6.87;;
21890;SDS011;11110;52.386;16.940;2023-01-04T13:42:22;9.57;;;6.40;;
21890;SDS011;11110;52.386;16.940;2023-01-04T13:45:07;14.47;;;7.70;;
21890;SDS011;11110;52.386;16.940;2023-01-04T13:47:48;10.07;;;6.70;;
21890;SDS011;11110;52.386;16.940;2023-01-04T13:50:25;9.53;;;6.40;;
21890;SDS011;11110;52.386;16.940;2023-01-04T13:52:57;12.97;;;6.67;;
21890;SDS011;11110;52.386;16.940;2023-01-04T13:55:34;10.57;;;6.63;;
21890;SDS011;11110;52.386;16.940;2023-01-04T13:58:05;12.83;;;7.70;;
21890;SDS011;11110;52.386;16.940;2023-01-04T14:00:35;10.73;;;6.47;;
21890;SDS011;11110;52.386;16.940;2023-01-04T14:03:13;10.57;;;6.50;;
21890;SDS011;11110;52.386;16.940;2023-01-04T14:06:10;12.77;;;6.53;;
21890;SDS011;11110;52.386;16.940;2023-01-04T14:08:43;15.20;;;6.17;;
21890;SDS011;11110;52.386;16.940;2023-01-04T14:11:17;10.03;;;5.77;;
21890;SDS011;11110;52.386;16.940;2023-01-04T14:17:06;10.80;;;6.30;;
21890;SDS011;11110;52.386;16.940;2023-01-04T14:19:48;7.97;;;5.60;;
21890;SDS011;11110;52.386;16.940;2023-01-04T14:22:27;9.03;;;5.73;;
21890;SDS011;11110;52.386;16.940;2023-01-04T14:28:18;8.67;;;6.20;;
21890;SDS011;11110;52.386;16.940;2023-01-04T14:34:07;8.27;;;5.30;;
21890;SDS011;11110;52.386;16.940;2023-01-04T14:36:41;10.30;;;5.80;;
21890;SDS011;11110;52.386;16.940;2023-01-04T14:39:14;9.43;;;5.40;;
21890;SDS011;11110;52.386;16.940;2023-01-04T14:41:59;9.23;;;5.40;;
21890;SDS011;11110;52.386;16.940;2023-01-04T14:44:30;8.20;;;5.30;;
21890;SDS011;11110;52.386;16.940;2023-01-04T14:47:01;10.40;;;5.97;;
21890;SDS011;11110;52.386;16.940;2023-01-04T14:49:33;10.80;;;6.43;;
21890;SDS011;11110;52.386;16.940;2023-01-04T14:52:06;9.33;;;5.40;;
21890;SDS011;11110;52.386;16.940;2023-01-04T14:54:39;8.93;;;5.87;;
21890;SDS011;11110;52.386;16.940;2023-01-04T14:57:08;13.20;;;6.83;;
21890;SDS011;11110;52.386;16.940;2023-01-04T14:59:37;8.50;;;5.37;;
21890;SDS011;11110;52.386;16.940;2023-01-04T15:02:07;8.47;;;5.70;;
21890;SDS011;11110;52.386;16.940;2023-01-04T15:04:37;9.30;;;5.40;;
21890;SDS011;11110;52.386;16.940;2023-01-04T15:07:06;9.87;;;5.30;;
21890;SDS011;11110;52.386;16.940;2023-01-04T15:09:50;9.23;;;5.30;;
21890;SDS011;11110;52.386;16.940;2023-01-04T15:12:19;10.73;;;6.27;;
21890;SDS011;11110;52.386;16.940;2023-01-04T15:14:48;7.67;;;5.10;;
21890;SDS011;11110;52.386;16.940;2023-01-04T15:17:16;10.23;;;5.60;;
21890;SDS011;11110;52.386;16.940;2023-01-04T15:19:45;10.13;;;5.63;;
21890;SDS011;11110;52.386;16.940;2023-01-04T15:22:14;11.70;;;5.73;;
21890;SDS011;11110;52.386;16.940;2023-01-04T15:24:43;8.37;;;5.20;;
21890;SDS011;11110;52.386;16.940;2023-01-04T15:27:13;10.50;;;5.93;;
21890;SDS011;11110;52.386;16.940;2023-01-04T15:29:41;13.07;;;6.17;;
21890;SDS011;11110;52.386;16.940;2023-01-04T15:32:10;10.90;;;6.37;;
21890;SDS011;11110;52.386;16.940;2023-01-04T15:34:39;9.53;;;6.23;;
21890;SDS011;11110;52.386;16.940;2023-01-04T15:37:13;8.53;;;5.17;;
21890;SDS011;11110;52.386;16.940;2023-01-04T15:39:49;10.67;;;6.73;;